Marion, Oregon
Current Conditions -  °F | °C
As of 3:56 PM on Wednesday 26 Nov 2014 (Local Time) from KSLE Reporting Station
Clear Clear  
Wind Chill: 59°   Ceiling: Unl
Heat Index: 59°   Visibility: 10mi
Dew Point: 49°   Wind: 8mph
Humidity: 69%   Direction: 170°S
Pressure: 30.07"   Gusts: NA
Location:  44.75°N, 122.94°W
Report Text: KSLE 262356Z 17007KT 10SM CLR 15/09 A3007 RMK AO2 SLP181 T01500094 10167 20139 58012
Loading
Personal Weather Stations






























Interactive Weather Map New forecast layout! Learn more

10-Day Weather Forecast

Advertisements
Track Severe Weather on mobile